KHAI/HAI METAR and TAF weather

Enter ICAO airport designator
Station Type Date Time Source
KHAI METAR 2020/04/09 09:15 UTC NOAA

KHAI 090915Z AUTO 30013G18KT 10SM BKN090 07/02 A2959 RMK AO2 T00670018


Station Type Date Time Source
KHAI Decoded METAR 2020/04/09 09:15 UTC NOAA

Station name not available
Apr 09, 2020 - 05:15 AM EDT / 2020.04.09 0915 UTC
Wind: from the WNW (300 degrees) at 15 MPH (13 KT) gusting to 21 MPH (18 KT):0
Visibility: 10 mile(s):0
Sky conditions: mostly cloudy
Temperature: 44.1 F (6.7 C)
Dew Point: 35.2 F (1.8 C)
Relative Humidity: 70%
Pressure (altimeter): 29.59 in. Hg (1002 hPa)
ob: KHAI 090915Z AUTO 30013G18KT 10SM BKN090 07/02 A2959 RMK AO2 T00670018
cycle: 9

Station Type Date Time Source
KHAI TAF UTC NOAA

Error!

Example: see airport list